createdAt,value
2022-10-23T00:01:17.847Z,99.99
2022-10-23T00:06:17.786Z,99.99
2022-10-23T00:11:17.741Z,99.99
2022-10-23T00:16:17.644Z,99.99
2022-10-23T00:21:17.583Z,99.99
2022-10-23T00:26:17.517Z,97.86
2022-10-23T00:31:17.439Z,99.38
2022-10-23T00:36:17.383Z,99.99
2022-10-23T00:41:17.346Z,94.85
2022-10-23T00:46:17.268Z,98.72
2022-10-23T00:51:17.186Z,97.80
2022-10-23T00:56:17.113Z,99.99
2022-10-23T01:01:17.108Z,99.99
2022-10-23T01:06:16.974Z,99.99
2022-10-23T01:11:16.935Z,99.99
2022-10-23T01:16:16.839Z,99.99
2022-10-23T01:21:16.786Z,99.99
2022-10-23T01:26:16.787Z,99.99
2022-10-23T01:31:16.646Z,99.99
2022-10-23T01:36:16.575Z,99.99
2022-10-23T01:41:16.512Z,99.99
2022-10-23T01:46:16.441Z,99.99
2022-10-23T01:51:16.397Z,99.99
2022-10-23T01:56:16.355Z,99.99
2022-10-23T02:01:16.375Z,99.99
2022-10-23T02:06:16.224Z,99.99
2022-10-23T02:11:16.143Z,99.99
2022-10-23T02:16:16.113Z,99.99
2022-10-23T02:21:16.039Z,99.99
2022-10-23T02:26:15.962Z,99.99
2022-10-23T02:31:15.879Z,99.99
2022-10-23T02:36:15.804Z,99.99
2022-10-23T02:41:15.754Z,99.99
2022-10-23T02:46:15.690Z,99.99
2022-10-23T02:51:15.603Z,99.99
2022-10-23T02:56:15.541Z,99.99
2022-10-23T03:01:15.556Z,99.99
2022-10-23T03:06:15.435Z,99.99
2022-10-23T03:11:15.373Z,99.99
2022-10-23T03:16:15.292Z,99.99
2022-10-23T03:21:15.237Z,99.99
2022-10-23T03:26:15.161Z,99.99
2022-10-23T03:31:15.084Z,99.99
2022-10-23T03:36:15.014Z,99.22
2022-10-23T03:41:14.962Z,99.99
2022-10-23T03:46:14.891Z,99.99
2022-10-23T03:51:14.813Z,99.99
2022-10-23T03:56:14.757Z,99.99
2022-10-23T04:01:14.734Z,99.99
2022-10-23T04:06:14.610Z,99.99
2022-10-23T04:11:14.577Z,99.99
2022-10-23T04:16:14.502Z,99.99
2022-10-23T04:21:14.459Z,99.99
2022-10-23T04:26:14.386Z,99.99
2022-10-23T04:31:14.319Z,99.99
2022-10-23T04:36:14.223Z,99.99
2022-10-23T04:41:14.219Z,99.99
2022-10-23T04:46:14.102Z,99.99
2022-10-23T04:51:14.034Z,99.99
2022-10-23T04:56:13.963Z,99.99
2022-10-23T05:01:14.042Z,99.99
2022-10-23T05:06:13.823Z,99.99
2022-10-23T05:11:13.786Z,98.77
2022-10-23T05:16:13.692Z,94.75
2022-10-23T05:21:13.651Z,98.00
2022-10-23T05:26:13.573Z,96.33
2022-10-23T05:31:13.564Z,98.43
2022-10-23T05:36:13.446Z,91.46
2022-10-23T05:41:13.399Z,93.05
2022-10-23T05:46:13.302Z,91.23
2022-10-23T05:51:13.259Z,84.58
2022-10-23T05:56:13.182Z,88.83
2022-10-23T06:01:13.177Z,94.84
2022-10-23T06:06:13.049Z,97.99
2022-10-23T06:11:13.005Z,98.86
2022-10-23T06:16:12.907Z,99.98
2022-10-23T06:21:12.897Z,97.20
2022-10-23T06:26:12.824Z,96.28
2022-10-23T06:31:12.724Z,95.62
2022-10-23T06:36:12.662Z,94.05
2022-10-23T06:41:12.603Z,94.76
2022-10-23T06:46:12.517Z,94.97
2022-10-23T06:51:12.454Z,96.23
2022-10-23T06:56:12.394Z,97.25
2022-10-23T07:01:12.412Z,93.07
2022-10-23T07:06:12.263Z,87.16
2022-10-23T07:11:12.190Z,90.80
2022-10-23T07:16:12.125Z,87.79
2022-10-23T07:21:12.091Z,85.64
2022-10-23T07:26:12.008Z,83.98
2022-10-23T07:31:11.928Z,82.62
2022-10-23T07:36:11.882Z,82.30
2022-10-23T07:41:12.530Z,83.92
2022-10-23T07:46:11.882Z,84.73
2022-10-23T07:51:11.674Z,83.41
2022-10-23T07:56:11.624Z,85.13
2022-10-23T08:01:11.735Z,84.77
2022-10-23T08:06:11.475Z,85.31
2022-10-23T08:11:11.399Z,86.15
2022-10-23T08:16:11.334Z,84.73
2022-10-23T08:21:11.277Z,85.78
2022-10-23T08:26:11.225Z,85.82
2022-10-23T08:31:11.255Z,87.24
2022-10-23T08:36:11.144Z,87.34
2022-10-23T08:41:11.174Z,87.14
2022-10-23T08:46:10.939Z,86.22
2022-10-23T08:51:11.014Z,85.39
2022-10-23T08:56:10.910Z,84.19
2022-10-23T09:01:11.034Z,84.48
2022-10-23T09:06:10.757Z,83.88
2022-10-23T09:11:10.653Z,83.37
2022-10-23T09:16:10.655Z,83.94
2022-10-23T09:21:10.726Z,83.15
2022-10-23T09:26:11.498Z,81.60
2022-10-23T09:31:11.782Z,80.76
2022-10-23T09:36:10.329Z,80.92
2022-10-23T09:41:10.349Z,80.47
2022-10-23T09:46:10.373Z,78.59
2022-10-23T09:51:10.074Z,79.29
2022-10-23T09:56:10.036Z,77.58
2022-10-23T10:01:10.074Z,77.58
2022-10-23T10:06:10.033Z,77.58
2022-10-23T10:11:09.864Z,78.02
2022-10-23T10:16:09.870Z,73.85
2022-10-23T10:21:09.687Z,73.11
2022-10-23T10:26:09.678Z,72.67
2022-10-23T10:31:09.571Z,72.17
2022-10-23T10:36:09.535Z,71.03
2022-10-23T10:41:09.441Z,71.00
2022-10-23T10:46:09.409Z,71.13
2022-10-23T10:51:09.319Z,71.03
2022-10-23T11:01:09.336Z,69.99
2022-10-23T11:06:09.131Z,71.13
2022-10-23T11:11:09.045Z,70.32
2022-10-23T11:16:08.983Z,70.93
2022-10-23T11:21:08.919Z,70.93
2022-10-23T11:26:08.876Z,70.43
2022-10-23T11:31:11.928Z,71.56
2022-10-23T11:36:08.735Z,74.29
2022-10-23T11:41:08.676Z,76.17
2022-10-23T11:46:08.710Z,77.72
2022-10-23T11:51:08.562Z,76.91
2022-10-23T11:56:08.447Z,78.12
2022-10-23T12:01:08.449Z,76.10
2022-10-23T12:06:08.329Z,77.11
2022-10-23T12:11:08.444Z,77.82
2022-10-23T12:16:08.226Z,77.48
2022-10-23T12:21:08.154Z,75.96
2022-10-23T12:26:08.377Z,77.42
2022-10-23T12:31:08.698Z,77.75
2022-10-23T12:36:07.948Z,77.75
2022-10-23T12:41:08.145Z,77.25
2022-10-23T12:46:07.805Z,77.51
2022-10-23T12:51:07.709Z,76.91
2022-10-23T12:56:07.654Z,77.21
2022-10-23T13:01:07.766Z,76.20
2022-10-23T13:06:07.543Z,77.38
2022-10-23T13:11:07.548Z,76.77
2022-10-23T13:16:07.399Z,75.67
2022-10-23T13:21:07.329Z,75.46
2022-10-23T13:26:07.354Z,76.27
2022-10-23T13:31:07.213Z,75.96
2022-10-23T13:36:07.145Z,75.87
2022-10-23T13:41:07.043Z,75.87
2022-10-23T13:51:06.910Z,76.10
2022-10-23T13:56:06.830Z,75.90
2022-10-23T14:01:07.592Z,76.00
2022-10-23T14:06:06.710Z,76.00
2022-10-23T14:11:06.677Z,76.95
2022-10-23T14:16:06.561Z,77.15
2022-10-23T14:21:06.493Z,77.79
2022-10-23T14:26:06.446Z,77.73
2022-10-23T14:31:06.370Z,77.53
2022-10-23T14:36:06.377Z,78.13
2022-10-23T14:41:06.266Z,78.17
2022-10-23T14:46:06.198Z,78.06
2022-10-23T14:51:06.136Z,78.27
2022-10-23T14:56:06.081Z,78.37
2022-10-23T15:01:06.050Z,78.61
2022-10-23T15:06:05.950Z,78.81
2022-10-23T15:11:07.762Z,79.75
2022-10-23T15:16:05.831Z,80.10
2022-10-23T15:21:05.718Z,80.20
2022-10-23T15:26:05.671Z,81.62
2022-10-23T15:31:06.748Z,80.60
2022-10-23T15:36:05.611Z,81.21
2022-10-23T15:41:05.438Z,81.65
2022-10-23T15:46:05.404Z,81.76
2022-10-23T15:51:05.478Z,81.55
2022-10-23T15:56:05.272Z,82.02
2022-10-23T16:01:05.298Z,81.96
2022-10-23T16:06:05.155Z,81.96
2022-10-23T16:11:05.074Z,81.96
2022-10-23T16:16:05.003Z,82.60
2022-10-23T16:21:04.960Z,82.70
2022-10-23T16:26:04.875Z,83.07
2022-10-23T16:31:04.805Z,82.50
2022-10-23T16:36:04.756Z,82.60
2022-10-23T16:41:07.058Z,83.21
2022-10-23T16:46:04.615Z,83.86
2022-10-23T16:51:04.602Z,84.47
2022-10-23T16:56:04.477Z,83.51
2022-10-23T17:01:04.510Z,83.82
2022-10-23T17:06:06.120Z,83.41
2022-10-23T17:11:04.321Z,83.82
2022-10-23T17:16:04.205Z,83.72
2022-10-23T17:21:04.165Z,83.92
2022-10-23T17:26:04.098Z,84.02
2022-10-23T17:31:04.045Z,84.53
2022-10-23T17:36:03.975Z,84.73
2022-10-23T17:41:03.861Z,85.03
2022-10-23T17:46:03.838Z,85.54
2022-10-23T17:51:03.809Z,85.94
2022-10-23T17:56:03.695Z,87.56
2022-10-23T18:01:03.648Z,87.26
2022-10-23T18:06:03.594Z,86.65
2022-10-23T18:11:03.541Z,87.00
2022-10-23T18:16:03.432Z,87.51
2022-10-23T18:21:03.412Z,88.15
2022-10-23T18:26:03.375Z,88.35
2022-10-23T18:31:03.297Z,88.62
2022-10-23T18:36:03.208Z,89.17
2022-10-23T18:41:03.111Z,89.26
2022-10-23T18:46:03.152Z,89.67
2022-10-23T18:51:03.158Z,89.37
2022-10-23T18:56:03.007Z,89.47
2022-10-23T19:01:02.959Z,88.92
2022-10-23T19:06:02.784Z,89.32
2022-10-23T19:11:02.893Z,89.12
2022-10-23T19:16:02.807Z,88.92
2022-10-23T19:21:03.085Z,90.08
2022-10-23T19:26:02.536Z,89.98
2022-10-23T19:31:02.524Z,89.94
2022-10-23T19:36:05.489Z,89.94
2022-10-23T19:41:02.358Z,90.03
2022-10-23T19:46:03.999Z,90.03
2022-10-23T19:51:02.244Z,90.03
2022-10-23T19:56:02.120Z,89.83
2022-10-23T20:01:02.165Z,90.14
2022-10-23T20:06:01.997Z,90.03
2022-10-23T20:11:01.975Z,89.73
2022-10-23T20:16:01.900Z,89.43
2022-10-23T20:21:01.809Z,89.32
2022-10-23T20:26:02.014Z,89.39
2022-10-23T20:31:01.650Z,87.97
2022-10-23T20:36:01.590Z,87.77
2022-10-23T20:41:01.538Z,87.22
2022-10-23T20:46:01.490Z,86.82
2022-10-23T20:51:01.381Z,86.41
2022-10-23T20:56:01.321Z,85.76
2022-10-23T21:01:01.332Z,85.66
2022-10-23T21:06:01.198Z,85.36
2022-10-23T21:11:01.154Z,85.66
2022-10-23T21:16:01.146Z,85.66
2022-10-23T21:21:00.999Z,85.05
2022-10-23T21:26:03.408Z,85.36
2022-10-23T21:31:01.914Z,85.76
2022-10-23T21:36:11.812Z,86.27
2022-10-23T21:41:01.737Z,87.22
2022-10-23T21:46:00.682Z,88.94
2022-10-23T21:51:00.719Z,90.40
2022-10-23T21:56:00.544Z,90.91
2022-10-23T22:01:00.534Z,91.96
2022-10-23T22:06:00.425Z,92.71
2022-10-23T22:11:00.333Z,92.61
2022-10-23T22:16:00.263Z,92.87
2022-10-23T22:21:01.313Z,94.34
2022-10-23T22:26:00.166Z,95.29
2022-10-23T22:31:00.160Z,95.04
2022-10-23T22:36:00.025Z,95.90
2022-10-23T22:40:59.953Z,97.06
2022-10-23T22:45:59.875Z,97.11
2022-10-23T22:50:59.864Z,96.71
2022-10-23T22:55:59.756Z,96.51
2022-10-23T23:00:59.721Z,96.71
2022-10-23T23:05:59.636Z,94.94
2022-10-23T23:10:59.555Z,95.04
2022-10-23T23:15:59.498Z,93.99
2022-10-23T23:20:59.413Z,93.48
2022-10-23T23:25:59.393Z,93.83
2022-10-23T23:30:59.308Z,94.23
2022-10-23T23:35:59.277Z,94.18
2022-10-23T23:40:59.261Z,94.27
2022-10-23T23:45:59.138Z,94.38
2022-10-23T23:50:59.035Z,95.28
2022-10-23T23:55:59.228Z,95.68
